Portada
METAR-TAF:

METAR-TAF

Aeropuertos :

Aeropuerto de Kristiansand-Kjevik

Kristiansand, Noruega

latitud: 58-12N, longitud: 008-05E, altitud: 1 m

Observación

El informe se hizo hace 31 minutos, a las 23:20 UTC
Viento 9 kt del oeste-suroeste
Temperatura 11°C
Humedad 76%
Presión 996 hPa
Visibilidad 10 km o más

METAR: ENCN 062320Z AUTO 24009KT 9999 OVC160/// 11/07 Q0996

Hora: 01:51 (23:51 UTC)

Pronóstico

El informe se hizo hace 9 horas y 51 minutos, a las 14:00 UTC
Pronóstico válido del 06 a las 15 UTC al 06 a las 21 UTC
Viento 12 kt del sur-suroeste
Visibilidad 10 km o más
Nubes dispersas a una altura de 3000 ft
Probabilidad 30% :
Temporalmente
del 06 a las 15 UTC al 06 a las 21 UTC
Escasas nubes a una altura de 2500 ft, Cumulonimbus.
Cielo nuboso a una altura de 3000 ft
chaparrones de lluvia

TAF: ENCN 061400Z 0615/0621 20012KT 9999 SCT030 PROB30 TEMPO 0615/0621 SHRA FEW025CB BKN030

Observaciones y pronósticos meteorológicos de más de 4000 aeropuertos (mensajes METAR y TAF).

Los puntos amarillos y rojos representan las estaciones disponibles.

Ponga el ratón en el punto deseado para ver el nombre de la estación.

Haga clic para ver las observaciones y los pronósticos meteorológicos.

Para cambiar el mapa : haga clic en los botones verdes con una cruz de color negro para hacer un zoom, en el botón verde con un guión para alejar o en las flechas verdes para mapas adyacentes.


METAR-TAF: